createdAt,value
2023-02-04T00:02:38.210Z,101945.34
2023-02-04T00:06:40.004Z,101951.47
2023-02-04T00:10:41.567Z,101942.09
2023-02-04T00:14:43.219Z,101948.28
2023-02-04T00:18:44.722Z,101944.59
2023-02-04T00:22:46.373Z,101964.94
2023-02-04T00:26:47.898Z,101974.19
2023-02-04T00:30:49.454Z,101967.31
2023-02-04T00:34:53.671Z,101979.25
2023-02-04T00:38:55.179Z,101983.47
2023-02-04T00:42:56.754Z,101991.91
2023-02-04T00:46:58.352Z,101991.16
2023-02-04T00:50:59.924Z,101990.16
2023-02-04T00:55:01.618Z,101998.72
2023-02-04T00:59:03.565Z,101999.72
2023-02-04T01:03:05.146Z,101999.91
2023-02-04T01:07:06.757Z,102005.69
2023-02-04T01:11:08.288Z,101989.34
2023-02-04T01:15:10.607Z,101993.91
2023-02-04T01:19:12.783Z,102003.84
2023-02-04T01:23:14.380Z,102008.06
2023-02-04T01:27:16.259Z,102015.75
2023-02-04T01:31:18.297Z,102005.63
2023-02-04T01:35:19.970Z,102007.28
2023-02-04T01:39:21.528Z,102017.19
2023-02-04T01:43:23.286Z,102021.31
2023-02-04T01:47:25.505Z,102016.22
2023-02-04T01:51:29.701Z,102023.34
2023-02-04T01:55:33.008Z,102025.97
2023-02-04T01:59:34.784Z,102044.97
2023-02-04T02:03:36.321Z,102044.75
2023-02-04T02:07:38.274Z,102042.66
2023-02-04T02:11:39.974Z,102061.09
2023-02-04T02:15:41.979Z,102063.88
2023-02-04T02:19:43.871Z,102059.97
2023-02-04T02:24:01.066Z,102068.13
2023-02-04T02:28:04.908Z,102069.06
2023-02-04T02:32:08.519Z,102078.47
2023-02-04T02:36:10.917Z,102078.47
2023-02-04T02:40:13.956Z,102078.59
2023-02-04T02:44:16.672Z,102090.34
2023-02-04T02:48:18.704Z,102081.56
2023-02-04T02:52:22.839Z,102084.81
2023-02-04T02:56:24.389Z,102092.25
2023-02-04T03:00:30.874Z,102089.94
2023-02-04T03:04:38.056Z,102089.34
2023-02-04T03:08:41.305Z,102103.56
2023-02-04T03:12:43.511Z,102093.94
2023-02-04T03:16:47.028Z,102101.88
2023-02-04T03:20:50.978Z,102113.19
2023-02-04T03:24:52.731Z,102111.44
2023-02-04T03:28:54.823Z,102122.28
2023-02-04T03:32:56.439Z,102123.97
2023-02-04T03:36:57.943Z,102120.53
2023-02-04T03:40:59.757Z,102120.31
2023-02-04T03:45:01.355Z,102118.09
2023-02-04T03:49:02.977Z,102125.97
2023-02-04T03:53:04.570Z,102135.28
2023-02-04T03:57:06.202Z,102138.81
2023-02-04T04:01:07.735Z,102132.53
2023-02-04T04:05:10.106Z,102143.94
2023-02-04T04:09:11.654Z,102157.59
2023-02-04T04:13:13.211Z,102150.03
2023-02-04T04:17:14.775Z,102145.16
2023-02-04T04:21:16.344Z,102153.13
2023-02-04T04:25:18.095Z,102139.94
2023-02-04T04:29:19.605Z,102141.41
2023-02-04T04:33:21.176Z,102164.59
2023-02-04T04:37:22.728Z,102172.25
2023-02-04T04:41:24.238Z,102174.66
2023-02-04T04:45:25.846Z,102180.19
2023-02-04T04:49:27.455Z,102184.19
2023-02-04T04:53:29.002Z,102192.63
2023-02-04T04:57:30.689Z,102192.63
2023-02-04T05:01:32.626Z,102194.63
2023-02-04T05:05:39.787Z,102182.41
2023-02-04T05:09:41.341Z,102185.31
2023-02-04T05:13:42.868Z,102173.75
2023-02-04T05:17:44.455Z,102180.66
2023-02-04T05:21:45.987Z,102196.19
2023-02-04T05:25:47.559Z,102197.50
2023-02-04T05:29:49.197Z,102197.41
2023-02-04T05:33:50.796Z,102193.53
2023-02-04T05:37:52.348Z,102203.75
2023-02-04T05:41:53.955Z,102210.38
2023-02-04T05:45:55.565Z,102227.94
2023-02-04T05:49:57.172Z,102229.25
2023-02-04T05:53:58.710Z,102230.56
2023-02-04T05:58:00.367Z,102229.25
2023-02-04T06:02:01.895Z,102234.44
2023-02-04T06:06:03.429Z,102238.22
2023-02-04T06:10:05.196Z,102246.97
2023-02-04T06:14:07.088Z,102252.81
2023-02-04T06:18:09.002Z,102262.78
2023-02-04T06:22:10.509Z,102261.72
2023-02-04T06:26:12.174Z,102270.50
2023-02-04T06:30:14.651Z,102269.50
2023-02-04T06:34:16.296Z,102277.38
2023-02-04T06:38:17.970Z,102285.91
2023-02-04T06:42:19.631Z,102287.56
2023-02-04T06:46:21.365Z,102273.28
2023-02-04T06:50:22.934Z,102270.38
2023-02-04T06:54:24.564Z,102280.28
2023-02-04T06:58:26.207Z,102284.81
2023-02-04T07:02:27.848Z,102293.81
2023-02-04T07:06:29.504Z,102289.63
2023-02-04T07:10:32.681Z,102302.03
2023-02-04T07:14:34.891Z,102311.22
2023-02-04T07:18:36.437Z,102312.81
2023-02-04T07:22:37.987Z,102332.34
2023-02-04T07:26:39.606Z,102338.31
2023-02-04T07:30:41.299Z,102331.09
2023-02-04T07:34:42.897Z,102339.06
2023-02-04T07:38:44.460Z,102337.91
2023-02-04T07:42:46.104Z,102345.88
2023-02-04T07:46:52.524Z,102363.19
2023-02-04T07:50:54.049Z,102370.25
2023-02-04T07:54:55.579Z,102376.25
2023-02-04T07:58:57.235Z,102380.03
2023-02-04T08:02:58.942Z,102382.47
2023-02-04T08:07:00.546Z,102391.03
2023-02-04T08:11:02.129Z,102396.38
2023-02-04T08:15:04.423Z,102395.72
2023-02-04T08:19:05.952Z,102405.38
2023-02-04T08:23:07.506Z,102395.50
2023-02-04T08:27:09.174Z,102403.50
2023-02-04T08:31:11.948Z,102400.78
2023-02-04T08:35:13.726Z,102409.34
2023-02-04T08:39:15.400Z,102419.56
2023-02-04T08:43:16.999Z,102412.88
2023-02-04T08:47:18.581Z,102414.84
2023-02-04T08:51:20.491Z,102423.63
2023-02-04T08:55:22.180Z,102439.63
2023-02-04T08:59:24.240Z,102439.31
2023-02-04T09:03:25.898Z,102434.53
2023-02-04T09:07:27.402Z,102444.97
2023-02-04T09:11:28.965Z,102449.00
2023-02-04T09:15:30.591Z,102455.34
2023-02-04T09:19:32.198Z,102455.00
2023-02-04T09:23:33.859Z,102454.66
2023-02-04T09:27:35.422Z,102457.22
2023-02-04T09:31:37.048Z,102457.19
2023-02-04T09:35:38.893Z,102455.88
2023-02-04T09:39:40.414Z,102460.09
2023-02-04T09:43:44.931Z,102457.97
2023-02-04T09:47:46.605Z,102460.28
2023-02-04T09:51:49.869Z,102466.63
2023-02-04T09:55:52.312Z,102476.88
2023-02-04T09:59:54.224Z,102487.91
2023-02-04T10:04:00.877Z,102478.78
2023-02-04T10:08:04.898Z,102489.91
2023-02-04T10:12:07.120Z,102483.75
2023-02-04T10:16:14.808Z,102492.34
2023-02-04T10:20:17.977Z,102489.47
2023-02-04T10:24:26.261Z,102495.75
2023-02-04T10:28:37.635Z,102494.31
2023-02-04T10:32:39.219Z,102503.09
2023-02-04T10:36:45.778Z,102503.81
2023-02-04T10:40:47.680Z,102509.47
2023-02-04T10:44:49.481Z,102506.25
2023-02-04T10:48:51.094Z,102497.72
2023-02-04T10:52:55.471Z,102495.31
2023-02-04T10:57:23.302Z,102500.63
2023-02-04T11:01:28.563Z,102488.91
2023-02-04T11:05:33.179Z,102486.56
2023-02-04T11:09:34.880Z,102496.16
2023-02-04T11:13:49.896Z,102489.25
2023-02-04T11:18:02.561Z,102486.50
2023-02-04T11:22:29.095Z,102485.56
2023-02-04T11:26:51.714Z,102491.09
2023-02-04T11:31:05.985Z,102491.44
2023-02-04T11:35:13.299Z,102490.47
2023-02-04T11:39:17.363Z,102489.63
2023-02-04T11:43:21.088Z,102497.72
2023-02-04T11:47:25.083Z,102493.31
2023-02-04T11:51:35.468Z,102483.06
2023-02-04T11:55:47.230Z,102495.59
2023-02-04T11:59:49.072Z,102499.09
2023-02-04T12:03:57.164Z,102485.97
2023-02-04T12:08:11.784Z,102485.13
2023-02-04T12:12:23.807Z,102484.53
2023-02-04T12:16:26.292Z,102487.28
2023-02-04T12:20:27.868Z,102479.38
2023-02-04T12:24:29.423Z,102488.22
2023-02-04T12:28:31.042Z,102481.31
2023-02-04T12:32:32.591Z,102493.38
2023-02-04T12:36:34.160Z,102502.34
2023-02-04T12:40:36.232Z,102489.66
2023-02-04T12:44:37.968Z,102502.28
2023-02-04T12:48:41.096Z,102496.81
2023-02-04T12:52:42.676Z,102499.25
2023-02-04T12:56:44.251Z,102509.69
2023-02-04T13:00:45.865Z,102512.63
2023-02-04T13:04:47.409Z,102511.28
2023-02-04T13:08:48.992Z,102502.81
2023-02-04T13:12:51.354Z,102495.47
2023-02-04T13:16:52.933Z,102499.56
2023-02-04T13:20:54.472Z,102497.34
2023-02-04T13:24:56.144Z,102492.28
2023-02-04T13:28:57.748Z,102490.50
2023-02-04T13:32:59.603Z,102491.47
2023-02-04T13:37:01.764Z,102495.13
2023-02-04T13:41:03.400Z,102486.22
2023-02-04T13:45:07.649Z,102485.34
2023-02-04T13:49:09.318Z,102496.97
2023-02-04T13:53:10.950Z,102493.25
2023-02-04T13:57:12.657Z,102499.09
2023-02-04T14:01:14.733Z,102506.38
2023-02-04T14:05:16.378Z,102500.38
2023-02-04T14:09:21.629Z,102507.88
2023-02-04T14:13:23.368Z,102500.69
2023-02-04T14:17:25.403Z,102497.00
2023-02-04T14:21:27.156Z,102504.00
2023-02-04T14:25:28.980Z,102508.56
2023-02-04T14:29:30.521Z,102507.50
2023-02-04T14:33:32.140Z,102512.59
2023-02-04T14:37:33.709Z,102506.47
2023-02-04T14:41:35.262Z,102511.78
2023-02-04T14:45:38.074Z,102509.31
2023-02-04T14:49:39.720Z,102513.31
2023-02-04T14:53:46.045Z,102506.31
2023-02-04T14:57:49.855Z,102504.78
2023-02-04T15:01:51.458Z,102507.03
2023-02-04T15:05:53.084Z,102517.09
2023-02-04T15:09:54.621Z,102523.81
2023-02-04T15:13:56.262Z,102517.03
2023-02-04T15:17:57.787Z,102519.31
2023-02-04T15:21:59.503Z,102524.94
2023-02-04T15:26:01.138Z,102534.66
2023-02-04T15:30:02.828Z,102531.94
2023-02-04T15:34:06.014Z,102531.28
2023-02-04T15:38:07.957Z,102527.97
2023-02-04T15:42:10.161Z,102524.84
2023-02-04T15:46:11.773Z,102533.81
2023-02-04T15:50:15.186Z,102531.69
2023-02-04T15:54:16.893Z,102533.81
2023-02-04T15:58:18.532Z,102536.16
2023-02-04T16:02:20.156Z,102545.97
2023-02-04T16:06:22.678Z,102549.72
2023-02-04T16:10:25.265Z,102553.38
2023-02-04T16:14:26.864Z,102552.56
2023-02-04T16:18:28.435Z,102568.34
2023-02-04T16:22:30.584Z,102578.03
2023-02-04T16:26:32.313Z,102591.31
2023-02-04T16:30:33.946Z,102594.75
2023-02-04T16:34:35.542Z,102585.84
2023-02-04T16:38:38.829Z,102586.28
2023-02-04T16:42:40.467Z,102595.38
2023-02-04T16:46:42.387Z,102594.72
2023-02-04T16:50:44.350Z,102599.97
2023-02-04T16:54:45.865Z,102611.59
2023-02-04T16:58:48.317Z,102602.38
2023-02-04T17:02:50.110Z,102616.88
2023-02-04T17:06:52.509Z,102623.66
2023-02-04T17:11:12.781Z,102622.16
2023-02-04T17:15:14.419Z,102623.00
2023-02-04T17:19:21.136Z,102610.53
2023-02-04T17:23:22.850Z,102614.38
2023-02-04T17:27:24.370Z,102617.44
2023-02-04T17:31:26.040Z,102614.41
2023-02-04T17:35:27.767Z,102620.03
2023-02-04T17:39:29.382Z,102626.47
2023-02-04T17:43:31.072Z,102629.94
2023-02-04T17:47:33.197Z,102628.34
2023-02-04T17:51:35.325Z,102628.72
2023-02-04T17:55:39.418Z,102650.41
2023-02-04T17:59:41.162Z,102636.53
2023-02-04T18:03:43.797Z,102647.47
2023-02-04T18:08:19.306Z,102647.88
2023-02-04T18:12:21.050Z,102651.72
2023-02-04T18:16:30.850Z,102662.91
2023-02-04T18:20:32.706Z,102662.75
2023-02-04T18:24:36.266Z,102662.66
2023-02-04T18:28:42.110Z,102654.13
2023-02-04T18:32:44.157Z,102668.25
2023-02-04T18:36:45.940Z,102668.41
2023-02-04T18:40:48.316Z,102666.59
2023-02-04T18:44:50.186Z,102670.69
2023-02-04T18:49:02.238Z,102665.56
2023-02-04T18:53:12.929Z,102674.53
2023-02-04T18:57:16.038Z,102681.53
2023-02-04T19:01:29.585Z,102684.72
2023-02-04T19:05:46.556Z,102681.66
2023-02-04T19:09:48.246Z,102671.84
2023-02-04T19:13:52.935Z,102660.13
2023-02-04T19:17:59.189Z,102672.09
2023-02-04T19:22:01.710Z,102662.03
2023-02-04T19:26:22.674Z,102675.81
2023-02-04T19:30:27.466Z,102674.88
2023-02-04T19:34:33.719Z,102677.97
2023-02-04T19:38:42.965Z,102676.78
2023-02-04T19:42:45.150Z,102682.94
2023-02-04T19:46:46.696Z,102678.56
2023-02-04T19:50:52.696Z,102672.59
2023-02-04T19:54:54.572Z,102672.88
2023-02-04T19:58:57.632Z,102672.88
2023-02-04T20:03:00.078Z,102672.97
2023-02-04T20:07:01.664Z,102655.25
2023-02-04T20:11:35.448Z,102663.66
2023-02-04T20:15:37.302Z,102674.50
2023-02-04T20:19:41.092Z,102674.16
2023-02-04T20:23:42.660Z,102676.44
2023-02-04T20:27:44.291Z,102677.59
2023-02-04T20:31:45.950Z,102670.06
2023-02-04T20:35:50.652Z,102683.81
2023-02-04T20:39:52.410Z,102688.81
2023-02-04T20:43:54.290Z,102695.56
2023-02-04T20:48:24.933Z,102705.38
2023-02-04T20:52:43.885Z,102712.63
2023-02-04T20:56:45.545Z,102725.09
2023-02-04T21:00:52.101Z,102723.34
2023-02-04T21:04:54.658Z,102736.06
2023-02-04T21:08:58.537Z,102729.94
2023-02-04T21:13:01.531Z,102732.88
2023-02-04T21:17:03.635Z,102727.66
2023-02-04T21:21:07.821Z,102736.31
2023-02-04T21:25:09.495Z,102737.97
2023-02-04T21:29:11.517Z,102737.44
2023-02-04T21:33:14.875Z,102742.94
2023-02-04T21:37:18.178Z,102741.28
2023-02-04T21:41:20.719Z,102727.66
2023-02-04T21:45:24.177Z,102726.75
2023-02-04T21:49:25.825Z,102722.66
2023-02-04T21:53:27.658Z,102728.69
2023-02-04T21:57:29.297Z,102732.34
2023-02-04T22:01:31.043Z,102722.91
2023-02-04T22:05:32.793Z,102718.44
2023-02-04T22:09:34.536Z,102720.06
2023-02-04T22:13:54.672Z,102714.94
2023-02-04T22:17:56.391Z,102711.59
2023-02-04T22:21:57.981Z,102715.53
2023-02-04T22:25:59.632Z,102711.81
2023-02-04T22:30:03.230Z,102711.31
2023-02-04T22:34:05.487Z,102720.69
2023-02-04T22:38:07.040Z,102732.47
2023-02-04T22:42:08.674Z,102727.59
2023-02-04T22:46:10.264Z,102723.91
2023-02-04T22:50:11.821Z,102713.00
2023-02-04T22:54:13.666Z,102708.09
2023-02-04T22:58:15.226Z,102717.13
2023-02-04T23:02:16.957Z,102706.69
2023-02-04T23:06:18.729Z,102725.25
2023-02-04T23:10:20.356Z,102717.97
2023-02-04T23:14:22.080Z,102724.56
2023-02-04T23:18:23.790Z,102714.47
2023-02-04T23:22:25.374Z,102714.81
2023-02-04T23:26:27.076Z,102720.25
2023-02-04T23:30:28.693Z,102724.16
2023-02-04T23:34:30.991Z,102723.47
2023-02-04T23:38:32.728Z,102732.34
2023-02-04T23:42:34.306Z,102734.59
2023-02-04T23:46:35.965Z,102747.78
2023-02-04T23:50:37.604Z,102750.03
2023-02-04T23:54:40.018Z,102742.28
2023-02-04T23:58:41.593Z,102741.69
